Time;durP1;ratioP1;P1;durP2;ratioP2;P2;SDS_P1;SDS_P2;PMS_P1;PMS_P2;Temp;Humidity;BMP_temperature;BMP_pressure;BME280_temperature;BME280_humidity;BME280_pressure;Samples;Min_cycle;Max_cycle;Signal;HPM_P1;HPM_P2
2021/08/03 00:00:07;;;;;;;0.30;0.20;;;17.50;68.40;;;;;;5059147;28;20078;-77
2021/08/03 00:02:34;;;;;;;0.30;0.20;;;17.40;69.20;;;;;;5058441;28;20070;-77
2021/08/03 00:05:02;;;;;;;0.13;0.13;;;17.30;69.10;;;;;;5061905;28;20024;-77
2021/08/03 00:07:31;;;;;;;0.20;0.20;;;17.30;68.90;;;;;;5078569;28;20035;-77
2021/08/03 00:09:57;;;;;;;0.20;0.20;;;17.30;69.10;;;;;;5078711;28;20020;-77
2021/08/03 00:12:24;;;;;;;0.20;0.20;;;17.20;69.90;;;;;;5078515;28;20067;-77
2021/08/03 00:14:52;;;;;;;0.20;0.20;;;17.20;70.40;;;;;;5072690;28;20032;-77
2021/08/03 00:17:20;;;;;;;0.22;0.20;;;17.20;70.40;;;;;;5058319;28;20463;-77
2021/08/03 00:19:46;;;;;;;0.10;0.10;;;17.30;70.40;;;;;;5058807;28;20032;-77
2021/08/03 00:22:13;;;;;;;0.13;0.13;;;17.30;70.70;;;;;;5058764;28;20061;-78
2021/08/03 00:24:39;;;;;;;0.20;0.20;;;17.30;70.30;;;;;;5058261;28;20017;-77
2021/08/03 00:27:24;;;;;;;0.20;0.20;;;17.30;70.00;;;;;;5058130;28;20895;-77
2021/08/03 00:29:50;;;;;;;0.20;0.20;;;17.30;69.60;;;;;;5074048;28;20021;-77
2021/08/03 00:32:17;;;;;;;0.20;0.20;;;17.30;69.80;;;;;;5058044;28;20036;-77
2021/08/03 00:34:43;;;;;;;0.20;0.20;;;17.30;70.00;;;;;;5058002;28;20056;-77
2021/08/03 00:37:09;;;;;;;0.20;0.20;;;17.30;71.40;;;;;;5058208;28;20032;-77
2021/08/03 00:39:37;;;;;;;0.20;0.20;;;17.40;69.80;;;;;;5056407;28;20032;-77
2021/08/03 00:42:05;;;;;;;0.20;0.20;;;17.50;69.60;;;;;;5075776;28;20068;-77
2021/08/03 00:44:50;;;;;;;0.20;0.20;;;17.50;69.50;;;;;;5068351;28;20074;-76
2021/08/03 00:47:19;;;;;;;0.15;0.15;;;17.50;70.10;;;;;;5073378;28;20063;-77
2021/08/03 00:49:46;;;;;;;0.20;0.20;;;17.50;69.70;;;;;;5056679;28;20128;-77
2021/08/03 00:52:14;;;;;;;0.20;0.20;;;17.50;70.70;;;;;;5056496;28;20031;-78
2021/08/03 00:54:40;;;;;;;0.20;0.20;;;17.50;70.30;;;;;;5072892;28;20025;-77
2021/08/03 00:57:08;;;;;;;0.22;0.20;;;17.50;70.10;;;;;;5056613;28;20566;-77
2021/08/03 00:59:34;;;;;;;0.25;0.20;;;17.50;69.60;;;;;;5068297;28;20040;-77
2021/08/03 01:02:02;;;;;;;0.20;0.20;;;17.50;70.00;;;;;;5077623;28;20040;-78
2021/08/03 01:04:28;;;;;;;0.22;0.20;;;17.40;69.90;;;;;;5076469;28;20067;-77
2021/08/03 01:07:15;;;;;;;;;;;;;;;;;;;;;
2021/08/03 01:10:03;;;;;;;0.20;0.20;;;17.20;71.70;;;;;;5058325;28;20037;-77
2021/08/03 01:12:51;;;;;;;0.20;0.20;;;17.10;71.20;;;;;;5057498;28;20025;-77
2021/08/03 01:15:23;;;;;;;0.25;0.20;;;17.00;71.00;;;;;;5057451;28;20021;-78
2021/08/03 01:17:58;;;;;;;0.30;0.25;;;17.00;71.10;;;;;;5057055;28;20048;-78
2021/08/03 01:20:27;;;;;;;0.20;0.20;;;16.90;71.90;;;;;;5057423;28;20024;-77
2021/08/03 01:23:27;;;;;;;0.20;0.20;;;16.80;72.10;;;;;;5055920;28;20029;-78
2021/08/03 01:26:14;;;;;;;0.20;0.20;;;16.80;72.00;;;;;;5075499;28;20028;-77
2021/08/03 01:28:45;;;;;;;0.15;0.15;;;16.80;72.30;;;;;;5076421;28;20038;-78
2021/08/03 01:31:21;;;;;;;0.20;0.20;;;16.80;71.70;;;;;;5057159;28;20017;-77
2021/08/03 01:33:50;;;;;;;0.20;0.20;;;16.80;71.70;;;;;;5056812;28;20031;-77
2021/08/03 01:36:17;;;;;;;0.20;0.20;;;16.80;71.60;;;;;;5055987;28;20033;-78
2021/08/03 01:38:43;;;;;;;0.20;0.20;;;16.80;72.30;;;;;;5056665;28;20492;-77
2021/08/03 01:41:30;;;;;;;0.20;0.20;;;16.80;72.40;;;;;;5066771;28;20051;-77
2021/08/03 01:43:58;;;;;;;0.20;0.20;;;16.80;71.80;;;;;;5055736;28;20044;-77
2021/08/03 01:46:25;;;;;;;0.25;0.25;;;16.80;72.30;;;;;;5063931;28;20020;-77
2021/08/03 01:48:53;;;;;;;0.22;0.20;;;16.80;72.10;;;;;;5056724;28;20017;-78
2021/08/03 01:51:20;;;;;;;0.20;0.20;;;16.80;71.90;;;;;;5071533;28;20488;-77
2021/08/03 01:53:46;;;;;;;0.30;0.20;;;16.80;72.00;;;;;;5056368;28;20594;-77
2021/08/03 01:56:13;;;;;;;0.20;0.20;;;16.80;72.20;;;;;;5056548;28;20051;-78
2021/08/03 01:58:42;;;;;;;0.30;0.20;;;16.80;72.20;;;;;;5074329;28;20033;-77
2021/08/03 02:01:09;;;;;;;0.30;0.30;;;16.80;72.30;;;;;;5076537;28;20532;-77
2021/08/03 02:03:37;;;;;;;0.20;0.20;;;16.80;72.20;;;;;;5076485;28;20040;-77
2021/08/03 02:06:05;;;;;;;0.20;0.20;;;16.70;72.70;;;;;;5072578;28;20475;-77
2021/08/03 02:08:31;;;;;;;0.32;0.30;;;16.70;72.90;;;;;;5056353;28;20120;-77
2021/08/03 02:10:57;;;;;;;0.20;0.20;;;16.70;72.80;;;;;;5056606;28;20417;-77
2021/08/03 02:13:24;;;;;;;0.20;0.20;;;16.70;72.80;;;;;;5055245;28;20083;-78
2021/08/03 02:15:52;;;;;;;0.35;0.20;;;16.70;72.70;;;;;;5064562;28;20023;-77
2021/08/03 02:18:18;;;;;;;0.30;0.30;;;16.70;72.50;;;;;;5074873;28;20099;-77
2021/08/03 02:20:47;;;;;;;0.20;0.20;;;16.70;72.60;;;;;;5073384;28;20029;-77
2021/08/03 02:23:13;;;;;;;0.20;0.20;;;16.70;72.30;;;;;;5076240;28;20063;-77
2021/08/03 02:25:41;;;;;;;0.20;0.20;;;16.70;72.30;;;;;;5076074;28;20029;-77
2021/08/03 02:28:07;;;;;;;0.35;0.20;;;16.70;72.40;;;;;;5069181;28;20021;-77
2021/08/03 02:30:33;;;;;;;0.25;0.25;;;16.70;72.70;;;;;;5056229;28;20036;-77
2021/08/03 02:33:14;;;;;;;0.30;0.30;;;16.60;72.30;;;;;;5056126;28;20041;-77
2021/08/03 02:35:49;;;;;;;0.32;0.20;;;16.60;72.40;;;;;;5054727;28;20123;-77
2021/08/03 02:38:38;;;;;;;0.30;0.30;;;16.60;72.40;;;;;;5067214;28;20036;-76
2021/08/03 02:41:05;;;;;;;0.30;0.30;;;16.50;72.90;;;;;;5074381;28;20060;-77
2021/08/03 02:43:32;;;;;;;0.28;0.20;;;16.50;72.70;;;;;;5063455;28;20048;-77
2021/08/03 02:46:03;;;;;;;0.28;0.28;;;16.40;73.00;;;;;;5055624;28;20488;-77
2021/08/03 02:48:30;;;;;;;0.20;0.20;;;16.30;72.80;;;;;;5062347;28;20054;-77
2021/08/03 02:50:57;;;;;;;0.20;0.20;;;16.30;73.10;;;;;;5075880;28;20027;-77
2021/08/03 02:53:46;;;;;;;0.20;0.20;;;16.30;73.50;;;;;;5075626;28;20028;-78
2021/08/03 02:56:22;;;;;;;0.40;0.30;;;16.20;74.20;;;;;;5057830;28;20082;-77
2021/08/03 02:59:05;;;;;;;0.30;0.20;;;16.20;73.70;;;;;;5055556;28;20086;-77
2021/08/03 03:01:33;;;;;;;0.25;0.20;;;16.20;73.50;;;;;;5055563;28;20043;-78
2021/08/03 03:04:28;;;;;;;0.30;0.20;;;16.20;73.30;;;;;;5054447;28;20040;-77
2021/08/03 03:07:02;;;;;;;0.25;0.20;;;16.10;73.60;;;;;;5046561;28;20033;-77
2021/08/03 03:09:33;;;;;;;0.28;0.28;;;16.10;73.60;;;;;;5055352;28;20112;-77
2021/08/03 03:11:59;;;;;;;0.40;0.30;;;16.10;73.90;;;;;;5055581;28;20100;-77
2021/08/03 03:14:27;;;;;;;0.30;0.20;;;16.00;73.60;;;;;;5055434;28;20024;-77
2021/08/03 03:16:58;;;;;;;0.30;0.30;;;16.00;73.80;;;;;;5055822;28;20021;-77
2021/08/03 03:19:25;;;;;;;0.32;0.30;;;16.00;73.30;;;;;;5075524;28;20027;-77
2021/08/03 03:21:52;;;;;;;0.60;0.30;;;15.90;73.60;;;;;;5074068;28;20165;-77
2021/08/03 03:24:18;;;;;;;0.30;0.30;;;16.00;73.80;;;;;;5075231;28;20555;-78
2021/08/03 03:26:46;;;;;;;0.30;0.20;;;15.90;73.80;;;;;;5062512;28;20032;-77
2021/08/03 03:29:13;;;;;;;0.40;0.30;;;15.90;73.90;;;;;;5053913;28;20028;-77
2021/08/03 03:31:40;;;;;;;0.50;0.30;;;15.90;73.70;;;;;;5053858;28;20036;-77
2021/08/03 03:34:07;;;;;;;0.20;0.20;;;15.80;73.90;;;;;;5053688;28;20071;-77
2021/08/03 03:36:36;;;;;;;0.30;0.30;;;15.80;74.00;;;;;;5061518;28;20044;-77
2021/08/03 03:39:05;;;;;;;0.20;0.20;;;15.80;74.10;;;;;;5055510;28;20075;-77
2021/08/03 03:41:32;;;;;;;0.30;0.30;;;15.80;74.20;;;;;;5067066;28;20052;-77
2021/08/03 03:43:58;;;;;;;0.30;0.30;;;15.80;74.20;;;;;;5057202;28;20108;-77
2021/08/03 03:46:38;;;;;;;0.30;0.30;;;15.80;74.30;;;;;;5053705;28;20356;-77
2021/08/03 03:49:11;;;;;;;0.30;0.30;;;15.80;74.10;;;;;;5069282;28;20096;-77
2021/08/03 03:51:40;;;;;;;0.50;0.40;;;15.80;74.10;;;;;;5053665;28;20025;-77
2021/08/03 03:54:08;;;;;;;0.30;0.30;;;15.70;74.10;;;;;;5053784;28;20056;-77
2021/08/03 03:56:44;;;;;;;0.20;0.20;;;15.70;74.00;;;;;;5054884;28;20418;-77
2021/08/03 03:59:12;;;;;;;0.30;0.20;;;15.70;74.10;;;;;;5055003;28;20083;-77
2021/08/03 04:01:38;;;;;;;0.22;0.20;;;15.70;74.00;;;;;;5053617;28;20029;-78
2021/08/03 04:04:10;;;;;;;0.30;0.30;;;15.70;73.90;;;;;;5053318;28;20037;-77
2021/08/03 04:06:36;;;;;;;0.30;0.20;;;15.70;74.00;;;;;;5058994;28;20033;-77
2021/08/03 04:09:02;;;;;;;0.30;0.28;;;15.70;73.90;;;;;;5070577;28;20578;-77
2021/08/03 04:11:28;;;;;;;0.50;0.30;;;15.60;74.00;;;;;;5054895;28;20532;-78
2021/08/03 04:13:56;;;;;;;0.30;0.30;;;15.70;74.00;;;;;;5054860;28;20029;-77
2021/08/03 04:16:21;;;;;;;0.30;0.30;;;15.70;74.20;;;;;;5075139;28;20048;-77
2021/08/03 04:18:47;;;;;;;0.22;0.20;;;15.60;74.20;;;;;;5078679;28;20482;-77
2021/08/03 04:21:13;;;;;;;0.25;0.25;;;15.70;74.10;;;;;;5078579;28;20036;-77
2021/08/03 04:23:39;;;;;;;0.30;0.30;;;15.60;74.40;;;;;;5062005;28;20399;-77
2021/08/03 04:26:05;;;;;;;0.30;0.30;;;15.60;74.10;;;;;;5058522;28;20024;-77
2021/08/03 04:28:30;;;;;;;0.20;0.20;;;15.70;75.00;;;;;;5058671;28;20032;-77
2021/08/03 04:30:59;;;;;;;0.20;0.20;;;15.70;74.30;;;;;;5058606;28;20029;-77
2021/08/03 04:33:25;;;;;;;0.30;0.30;;;15.70;74.10;;;;;;5072722;28;20039;-77
2021/08/03 04:35:51;;;;;;;0.30;0.30;;;15.70;74.20;;;;;;5057059;28;20559;-77
2021/08/03 04:38:16;;;;;;;0.30;0.30;;;15.70;74.20;;;;;;5056713;28;20032;-77
2021/08/03 04:40:42;;;;;;;0.30;0.25;;;15.70;73.70;;;;;;5064734;28;20054;-78
2021/08/03 04:43:08;;;;;;;0.30;0.30;;;15.70;73.80;;;;;;5075496;28;20028;-77
2021/08/03 04:45:33;;;;;;;0.30;0.30;;;15.80;74.10;;;;;;5078024;28;20453;-77
2021/08/03 04:47:59;;;;;;;0.30;0.22;;;15.80;74.00;;;;;;5076516;28;20042;-77
2021/08/03 04:50:26;;;;;;;0.35;0.30;;;15.80;74.00;;;;;;5076603;28;20565;-76
2021/08/03 04:52:53;;;;;;;0.20;0.20;;;15.80;74.20;;;;;;5072326;28;20024;-76
2021/08/03 04:55:19;;;;;;;0.82;0.30;;;15.80;74.70;;;;;;5057806;28;20025;-76
2021/08/03 04:57:45;;;;;;;0.28;0.28;;;15.70;75.10;;;;;;5056934;28;20028;-76
2021/08/03 05:00:12;;;;;;;0.20;0.20;;;15.70;74.80;;;;;;5057742;28;20029;-76
2021/08/03 05:02:39;;;;;;;0.20;0.20;;;15.80;74.30;;;;;;5056178;28;20009;-76
2021/08/03 05:05:06;;;;;;;0.30;0.30;;;15.80;74.20;;;;;;5057607;28;20569;-76
2021/08/03 05:07:31;;;;;;;0.40;0.30;;;15.90;74.10;;;;;;5056218;28;20096;-76
2021/08/03 05:10:01;;;;;;;0.30;0.30;;;15.90;73.60;;;;;;5067407;28;20482;-76
2021/08/03 05:12:27;;;;;;;0.30;0.20;;;15.80;74.00;;;;;;5076501;28;20036;-76
2021/08/03 05:14:58;;;;;;;0.30;0.20;;;15.90;73.70;;;;;;5059861;28;20319;-76
2021/08/03 05:17:24;;;;;;;0.40;0.30;;;16.00;73.90;;;;;;5068669;28;20028;-76
2021/08/03 05:19:51;;;;;;;0.40;0.30;;;16.00;73.80;;;;;;5057458;28;20032;-76
2021/08/03 05:22:17;;;;;;;0.32;0.30;;;16.00;74.20;;;;;;5056191;28;20032;-76
2021/08/03 05:24:43;;;;;;;0.20;0.20;;;15.90;74.40;;;;;;5057107;28;20029;-76
2021/08/03 05:27:08;;;;;;;0.30;0.20;;;15.90;74.60;;;;;;5055444;28;20115;-76
2021/08/03 05:29:34;;;;;;;0.20;0.20;;;16.00;73.80;;;;;;5077447;28;20012;-76
2021/08/03 05:32:00;;;;;;;0.20;0.20;;;16.00;73.70;;;;;;5077022;28;20028;-76
2021/08/03 05:34:25;;;;;;;0.25;0.20;;;16.00;73.90;;;;;;5059006;28;20048;-76
2021/08/03 05:36:51;;;;;;;0.20;0.20;;;16.10;73.60;;;;;;5060340;28;20040;-76
2021/08/03 05:39:16;;;;;;;0.30;0.30;;;16.20;73.60;;;;;;5055641;28;20507;-76
2021/08/03 05:41:42;;;;;;;0.30;0.30;;;16.20;73.60;;;;;;5066295;28;20052;-76
2021/08/03 05:44:08;;;;;;;0.20;0.20;;;16.20;73.10;;;;;;5055458;28;20033;-76
2021/08/03 05:46:34;;;;;;;0.30;0.30;;;16.20;73.30;;;;;;5055404;28;20028;-76
2021/08/03 05:48:59;;;;;;;0.32;0.30;;;16.30;73.40;;;;;;5055459;28;20396;-79
2021/08/03 05:51:25;;;;;;;0.20;0.20;;;16.30;73.40;;;;;;5056560;28;20122;-76
2021/08/03 05:53:50;;;;;;;0.40;0.30;;;16.20;73.70;;;;;;5056773;28;20050;-76
2021/08/03 05:56:16;;;;;;;0.30;0.28;;;16.30;73.50;;;;;;5055480;28;20032;-79
2021/08/03 05:58:42;;;;;;;0.47;0.30;;;16.30;73.70;;;;;;5055309;28;20068;-76
2021/08/03 06:01:07;;;;;;;0.30;0.30;;;16.30;73.20;;;;;;5070977;28;20053;-76
2021/08/03 06:03:33;;;;;;;0.20;0.20;;;16.30;73.60;;;;;;5054963;28;20096;-76
2021/08/03 06:05:59;;;;;;;0.30;0.30;;;16.30;73.50;;;;;;5056483;28;20095;-76
2021/08/03 06:08:26;;;;;;;0.40;0.30;;;16.40;73.30;;;;;;5056367;28;20032;-76
2021/08/03 06:10:53;;;;;;;0.28;0.20;;;16.40;74.00;;;;;;5071664;28;20067;-76
2021/08/03 06:13:22;;;;;;;0.22;0.22;;;16.40;73.30;;;;;;5054838;28;20044;-76
2021/08/03 06:15:50;;;;;;;0.22;0.20;;;16.50;72.80;;;;;;5056541;28;20773;-76
2021/08/03 06:18:22;;;;;;;0.30;0.20;;;16.60;72.40;;;;;;5055089;28;20132;-76
2021/08/03 06:20:48;;;;;;;0.20;0.20;;;16.70;72.60;;;;;;5056174;28;20056;-76
2021/08/03 06:23:15;;;;;;;0.30;0.30;;;16.70;72.80;;;;;;5054649;28;20392;-76
2021/08/03 06:25:42;;;;;;;0.30;0.20;;;16.70;72.30;;;;;;5055008;28;20040;-76
2021/08/03 06:28:08;;;;;;;0.35;0.30;;;16.80;71.90;;;;;;5054553;28;20029;-76
2021/08/03 06:30:40;;;;;;;0.20;0.20;;;16.80;71.40;;;;;;5054908;28;20021;-76
2021/08/03 06:33:06;;;;;;;0.22;0.20;;;16.80;71.70;;;;;;5055945;28;20028;-77
2021/08/03 06:35:33;;;;;;;0.38;0.30;;;16.90;71.90;;;;;;5056051;28;20021;-76
2021/08/03 06:37:59;;;;;;;0.30;0.30;;;16.90;71.50;;;;;;5055792;28;20438;-76
2021/08/03 06:40:25;;;;;;;0.30;0.20;;;17.00;71.20;;;;;;5058692;28;20028;-76
2021/08/03 06:43:10;;;;;;;0.20;0.20;;;17.10;70.90;;;;;;5075742;28;20092;-77
2021/08/03 06:45:37;;;;;;;0.20;0.20;;;17.20;70.80;;;;;;5076114;28;20024;-76
2021/08/03 06:48:11;;;;;;;0.20;0.20;;;17.30;71.10;;;;;;5057755;28;20025;-77
2021/08/03 06:51:10;;;;;;;0.20;0.20;;;17.30;70.80;;;;;;5054448;28;20036;-76
2021/08/03 06:53:39;;;;;;;0.30;0.30;;;17.00;71.60;;;;;;5066844;28;20506;-76
2021/08/03 06:56:06;;;;;;;0.30;0.30;;;17.00;71.90;;;;;;5055657;28;20085;-76
2021/08/03 06:58:35;;;;;;;0.38;0.20;;;17.00;71.90;;;;;;5055526;28;20067;-76
2021/08/03 07:01:05;;;;;;;0.20;0.20;;;17.10;72.00;;;;;;5055593;28;20021;-76
2021/08/03 07:03:38;;;;;;;0.40;0.30;;;17.00;71.80;;;;;;5053985;28;20110;-76
2021/08/03 07:06:07;;;;;;;0.20;0.20;;;17.00;71.60;;;;;;5055392;28;20295;-76
2021/08/03 07:08:34;;;;;;;0.30;0.20;;;17.10;71.50;;;;;;5055494;28;20024;-77
2021/08/03 07:11:00;;;;;;;0.45;0.20;;;17.20;71.30;;;;;;5071011;28;20055;-76
2021/08/03 07:13:26;;;;;;;0.20;0.20;;;17.20;71.60;;;;;;5053912;28;20037;-76
2021/08/03 07:15:52;;;;;;;0.20;0.20;;;17.20;72.00;;;;;;5055429;28;20045;-76
2021/08/03 07:18:22;;;;;;;0.32;0.20;;;17.30;71.60;;;;;;5055449;28;20029;-76
2021/08/03 07:20:49;;;;;;;0.65;0.20;;;17.30;71.90;;;;;;5054124;28;20036;-76
2021/08/03 07:23:19;;;;;;;0.20;0.20;;;17.30;71.60;;;;;;5054040;28;20096;-77
2021/08/03 07:25:47;;;;;;;0.20;0.20;;;17.30;71.00;;;;;;5055152;28;20029;-77
2021/08/03 07:28:13;;;;;;;0.20;0.20;;;17.40;70.60;;;;;;5070894;28;20078;-76
2021/08/03 07:30:42;;;;;;;0.40;0.30;;;17.30;71.10;;;;;;5054223;28;20021;-76
2021/08/03 07:33:13;;;;;;;0.20;0.20;;;17.50;70.60;;;;;;5070590;28;20040;-77
2021/08/03 07:35:41;;;;;;;0.55;0.30;;;17.60;70.90;;;;;;5070982;28;20032;-76
2021/08/03 07:38:07;;;;;;;0.30;0.20;;;17.60;70.70;;;;;;5068573;28;20029;-76
2021/08/03 07:40:33;;;;;;;0.20;0.20;;;17.70;70.50;;;;;;5060570;28;20047;-77
2021/08/03 07:42:59;;;;;;;0.40;0.30;;;17.80;70.20;;;;;;5073916;28;20025;-77
2021/08/03 07:45:25;;;;;;;0.20;0.20;;;17.70;70.10;;;;;;5073831;28;20533;-77
2021/08/03 07:47:51;;;;;;;0.30;0.20;;;17.70;69.90;;;;;;5066441;28;20037;-76
2021/08/03 07:50:17;;;;;;;0.20;0.20;;;17.80;69.10;;;;;;5056341;28;20095;-77
2021/08/03 07:52:42;;;;;;;0.47;0.30;;;17.80;68.80;;;;;;5058950;28;20024;-76
2021/08/03 07:55:08;;;;;;;0.30;0.20;;;17.70;69.80;;;;;;5058906;28;20036;-76
2021/08/03 07:57:34;;;;;;;0.28;0.20;;;17.70;69.90;;;;;;5067179;28;20028;-76
2021/08/03 07:59:59;;;;;;;0.30;0.20;;;17.80;69.80;;;;;;5078875;28;20024;-76
2021/08/03 08:02:25;;;;;;;0.45;0.20;;;17.80;69.40;;;;;;5078652;28;20046;-76
2021/08/03 08:04:51;;;;;;;0.30;0.20;;;17.70;69.30;;;;;;5078681;28;20036;-76
2021/08/03 08:07:16;;;;;;;0.25;0.20;;;17.60;70.00;;;;;;5066054;28;20029;-76
2021/08/03 08:09:42;;;;;;;0.22;0.20;;;17.60;69.90;;;;;;5057721;28;20028;-77
2021/08/03 08:12:08;;;;;;;0.30;0.20;;;17.50;70.60;;;;;;5059232;28;20441;-76
2021/08/03 08:14:34;;;;;;;0.30;0.20;;;17.60;70.80;;;;;;5057218;28;20041;-76
2021/08/03 08:17:01;;;;;;;0.75;0.20;;;17.70;70.30;;;;;;5057136;28;20082;-77
2021/08/03 08:19:27;;;;;;;0.30;0.20;;;17.80;69.80;;;;;;5058451;28;20036;-76
2021/08/03 08:21:53;;;;;;;0.35;0.20;;;17.90;70.00;;;;;;5057870;28;20029;-76
2021/08/03 08:24:18;;;;;;;0.30;0.20;;;17.90;70.00;;;;;;5058277;28;20526;-76
2021/08/03 08:26:46;;;;;;;0.43;0.30;;;18.00;69.80;;;;;;5057586;28;20024;-76
2021/08/03 08:29:16;;;;;;;0.20;0.20;;;18.00;69.40;;;;;;5058599;28;20478;-77
2021/08/03 08:31:45;;;;;;;0.30;0.20;;;18.00;69.00;;;;;;5072445;28;20037;-76
2021/08/03 08:34:12;;;;;;;0.28;0.25;;;18.00;69.10;;;;;;5078373;28;20098;-77
2021/08/03 08:36:38;;;;;;;0.30;0.20;;;18.00;69.60;;;;;;5076798;28;20486;-77
2021/08/03 08:39:04;;;;;;;0.20;0.20;;;18.00;70.10;;;;;;5078279;28;20040;-77
2021/08/03 08:41:33;;;;;;;0.20;0.20;;;17.90;69.80;;;;;;5072518;28;20080;-76
2021/08/03 08:44:00;;;;;;;0.20;0.20;;;18.00;70.80;;;;;;5076626;28;20478;-76
2021/08/03 08:46:26;;;;;;;0.20;0.20;;;17.90;71.50;;;;;;5076937;28;20021;-76
2021/08/03 08:48:52;;;;;;;0.43;0.22;;;18.00;72.20;;;;;;5077886;28;20028;-76
2021/08/03 08:51:18;;;;;;;0.20;0.20;;;18.00;72.80;;;;;;5059383;28;20052;-76
2021/08/03 08:53:43;;;;;;;0.20;0.20;;;18.00;71.80;;;;;;5057873;28;20090;-77
2021/08/03 08:56:09;;;;;;;0.20;0.20;;;18.30;72.00;;;;;;5072020;28;20052;-76
2021/08/03 08:58:35;;;;;;;0.20;0.20;;;18.40;70.70;;;;;;5057793;28;20083;-76
2021/08/03 09:01:01;;;;;;;0.20;0.20;;;18.60;70.90;;;;;;5056507;28;20032;-76
2021/08/03 09:03:28;;;;;;;0.10;0.10;;;18.70;70.30;;;;;;5056461;28;20087;-77
2021/08/03 09:06:00;;;;;;;0.20;0.20;;;18.70;71.60;;;;;;5057644;28;20107;-76
2021/08/03 09:08:37;;;;;;;0.20;0.20;;;18.60;69.90;;;;;;5058273;28;20036;-76
2021/08/03 09:11:10;;;;;;;0.20;0.20;;;18.60;69.30;;;;;;5076278;28;20021;-77
2021/08/03 09:14:02;;;;;;;0.40;0.28;;;18.60;69.20;;;;;;5076209;28;20028;-77
2021/08/03 09:16:47;;;;;;;0.30;0.20;;;18.60;69.80;;;;;;5068060;28;20096;-76
2021/08/03 09:19:35;;;;;;;0.20;0.20;;;18.80;70.90;;;;;;5056059;28;20376;-76
2021/08/03 09:22:23;;;;;;;0.13;0.13;;;18.70;71.40;;;;;;5057271;28;20399;-77
2021/08/03 09:25:08;;;;;;;0.10;0.10;;;18.80;69.60;;;;;;5063801;28;20043;-77
2021/08/03 09:27:44;;;;;;;0.20;0.20;;;18.90;69.60;;;;;;5057258;28;20082;-76
2021/08/03 09:30:26;;;;;;;0.10;0.10;;;19.00;69.80;;;;;;5057196;28;20032;-76
2021/08/03 09:32:52;;;;;;;0.30;0.20;;;18.80;69.00;;;;;;5057094;28;20059;-76
2021/08/03 09:35:21;;;;;;;0.30;0.20;;;18.70;71.40;;;;;;5057040;28;20033;-76
2021/08/03 09:37:48;;;;;;;0.57;0.20;;;18.40;71.70;;;;;;5057496;28;20029;-76
2021/08/03 09:40:21;;;;;;;0.38;0.20;;;18.60;72.00;;;;;;5042144;28;20028;-76
2021/08/03 09:43:07;;;;;;;0.35;0.20;;;18.80;71.60;;;;;;5076927;28;20384;-77
2021/08/03 09:45:43;;;;;;;0.40;0.20;;;18.60;72.90;;;;;;5060458;28;20071;-76
2021/08/03 09:48:13;;;;;;;0.38;0.30;;;18.80;72.70;;;;;;5072321;28;20040;-76
2021/08/03 09:51:03;;;;;;;0.30;0.20;;;18.90;72.00;;;;;;5071301;28;20120;-77
2021/08/03 09:53:52;;;;;;;0.37;0.20;;;19.30;72.10;;;;;;5055396;28;20381;-77
2021/08/03 09:56:26;;;;;;;0.20;0.10;;;19.20;71.90;;;;;;5056655;28;20267;-77
2021/08/03 09:58:59;;;;;;;0.40;0.30;;;19.20;72.30;;;;;;5060011;28;20059;-77
2021/08/03 10:01:33;;;;;;;0.10;0.10;;;19.50;72.90;;;;;;5076594;28;20032;-77
2021/08/03 10:04:05;;;;;;;0.15;0.10;;;19.60;71.30;;;;;;5076202;28;20028;-77
2021/08/03 10:06:31;;;;;;;0.20;0.20;;;19.60;71.10;;;;;;5076678;28;20028;-76
2021/08/03 10:08:58;;;;;;;0.20;0.20;;;19.30;72.50;;;;;;5074044;28;20028;-77
2021/08/03 10:11:24;;;;;;;0.10;0.10;;;19.10;72.60;;;;;;5075150;28;20028;-76
2021/08/03 10:13:52;;;;;;;0.30;0.20;;;18.90;72.30;;;;;;5075824;28;20020;-76
2021/08/03 10:16:18;;;;;;;0.20;0.20;;;18.80;71.90;;;;;;5068370;28;20112;-76
2021/08/03 10:18:49;;;;;;;0.20;0.10;;;18.50;73.20;;;;;;5054823;28;20036;-76
2021/08/03 10:21:37;;;;;;;0.30;0.20;;;18.60;74.30;;;;;;5056147;28;20055;-76
2021/08/03 10:24:16;;;;;;;0.38;0.20;;;18.30;73.50;;;;;;5056008;28;20484;-76
2021/08/03 10:27:05;;;;;;;0.15;0.15;;;18.30;73.70;;;;;;5056211;28;20021;-76
2021/08/03 10:29:32;;;;;;;0.20;0.10;;;18.30;74.90;;;;;;5056326;28;20028;-76
2021/08/03 10:31:58;;;;;;;0.20;0.20;;;18.30;74.60;;;;;;5072167;28;20036;-76
2021/08/03 10:34:42;;;;;;;0.20;0.20;;;18.30;75.40;;;;;;5074590;28;20039;-76
2021/08/03 10:37:09;;;;;;;0.20;0.20;;;18.50;74.80;;;;;;5061777;28;20040;-77
2021/08/03 10:39:51;;;;;;;0.20;0.20;;;18.40;74.20;;;;;;5054526;28;20020;-77
2021/08/03 10:42:17;;;;;;;0.20;0.20;;;18.50;73.10;;;;;;5075549;28;20123;-76
2021/08/03 10:44:49;;;;;;;0.30;0.20;;;18.30;73.00;;;;;;5073220;28;20024;-76
2021/08/03 10:47:30;;;;;;;0.30;0.20;;;18.20;73.30;;;;;;5055635;28;20564;-76
2021/08/03 10:49:58;;;;;;;0.20;0.20;;;18.00;74.00;;;;;;5071195;28;20537;-77
2021/08/03 10:52:44;;;;;;;0.20;0.20;;;18.00;74.00;;;;;;5055993;28;20131;-76
2021/08/03 10:55:40;;;;;;;0.20;0.20;;;18.10;75.30;;;;;;5058834;28;20040;-77
2021/08/03 10:58:08;;;;;;;0.10;0.10;;;18.20;74.60;;;;;;5063474;28;20024;-77
2021/08/03 11:00:47;;;;;;;0.22;0.17;;;18.30;74.50;;;;;;5071065;28;20115;-76
2021/08/03 11:03:31;;;;;;;0.20;0.10;;;18.60;73.30;;;;;;5061907;28;20029;-77
2021/08/03 11:06:03;;;;;;;0.15;0.15;;;18.80;72.50;;;;;;5069278;28;20511;-76
2021/08/03 11:08:30;;;;;;;0.13;0.13;;;19.00;71.50;;;;;;5054454;28;20039;-76
2021/08/03 11:11:05;;;;;;;0.20;0.20;;;19.10;70.00;;;;;;5055474;28;20107;-76
2021/08/03 11:13:51;;;;;;;0.20;0.20;;;19.20;69.20;;;;;;5055341;28;20111;-77
2021/08/03 11:16:23;;;;;;;0.22;0.20;;;19.30;69.20;;;;;;5055368;28;20483;-76
2021/08/03 11:18:53;;;;;;;0.35;0.20;;;19.50;68.70;;;;;;5055186;28;20029;-77
2021/08/03 11:21:24;;;;;;;0.25;0.17;;;20.00;67.80;;;;;;5055632;28;20454;-77
2021/08/03 11:24:06;;;;;;;0.10;0.10;;;20.30;65.50;;;;;;5073751;28;20032;-77
2021/08/03 11:26:31;;;;;;;0.20;0.10;;;20.50;65.70;;;;;;5077436;28;20482;-77
2021/08/03 11:28:59;;;;;;;0.20;0.20;;;20.30;65.70;;;;;;5073867;28;20037;-77
2021/08/03 11:31:41;;;;;;;0.10;0.10;;;20.00;65.70;;;;;;5059443;28;20491;-76
2021/08/03 11:34:08;;;;;;;0.20;0.15;;;20.40;67.40;;;;;;5059459;28;20553;-77
2021/08/03 11:36:36;;;;;;;0.15;0.10;;;20.70;66.60;;;;;;5059286;28;20036;-76
2021/08/03 11:39:21;;;;;;;0.10;0.10;;;20.80;63.00;;;;;;5058256;28;20036;-76
2021/08/03 11:41:48;;;;;;;0.10;0.10;;;20.30;64.60;;;;;;5074777;28;20045;-77
2021/08/03 11:44:15;;;;;;;0.10;0.10;;;20.50;63.50;;;;;;5061358;28;20029;-77
2021/08/03 11:46:44;;;;;;;0.10;0.10;;;20.40;62.10;;;;;;5059091;28;20044;-76
2021/08/03 11:49:11;;;;;;;0.20;0.10;;;20.30;62.70;;;;;;5058938;28;20036;-77
2021/08/03 11:51:44;;;;;;;0.10;0.10;;;20.50;63.80;;;;;;5059151;28;20033;-76
2021/08/03 11:54:16;;;;;;;0.10;0.10;;;20.30;61.10;;;;;;5059029;28;20513;-77
2021/08/03 11:56:43;;;;;;;0.13;0.10;;;20.40;59.60;;;;;;5058777;28;20557;-76
2021/08/03 11:59:11;;;;;;;0.20;0.15;;;20.50;58.40;;;;;;5058919;28;20487;-77
2021/08/03 12:01:51;;;;;;;0.10;0.10;;;20.30;58.70;;;;;;5058955;28;20025;-76
2021/08/03 12:04:21;;;;;;;0.10;0.10;;;20.40;62.00;;;;;;5074000;28;20033;-77
2021/08/03 12:06:47;;;;;;;0.10;0.10;;;20.60;61.70;;;;;;5058547;28;20025;-77
2021/08/03 12:09:13;;;;;;;0.17;0.10;;;20.60;61.20;;;;;;5058695;28;20502;-76
2021/08/03 12:11:39;;;;;;;0.20;0.10;;;20.60;61.10;;;;;;5058925;28;20077;-77
2021/08/03 12:14:13;;;;;;;0.10;0.10;;;20.90;62.70;;;;;;5058302;28;20087;-76
2021/08/03 12:16:44;;;;;;;0.10;0.10;;;21.00;59.80;;;;;;5058501;28;20048;-77
2021/08/03 12:19:35;;;;;;;0.20;0.10;;;20.80;57.20;;;;;;5062451;28;20059;-76
2021/08/03 12:22:02;;;;;;;0.15;0.10;;;20.70;57.40;;;;;;5078560;28;20024;-76
2021/08/03 12:24:29;;;;;;;0.10;0.10;;;20.40;59.70;;;;;;5078387;28;20028;-76
2021/08/03 12:27:12;;;;;;;0.10;0.10;;;20.30;61.40;;;;;;5069520;28;20491;-77
2021/08/03 12:29:38;;;;;;;0.10;0.10;;;20.30;61.70;;;;;;5058320;28;20021;-76
2021/08/03 12:32:04;;;;;;;0.10;0.10;;;20.50;59.60;;;;;;5058230;28;20017;-76
2021/08/03 12:34:38;;;;;;;0.10;0.10;;;20.70;61.40;;;;;;5056532;28;20072;-77
2021/08/03 12:37:06;;;;;;;0.10;0.10;;;20.70;58.70;;;;;;5057753;28;20063;-76
2021/08/03 12:39:41;;;;;;;0.10;0.10;;;20.50;57.50;;;;;;5074086;28;20032;-76
2021/08/03 12:44:58;;;;;;;0.10;0.10;;;20.20;58.10;;;;;;5057887;28;20032;-77
2021/08/03 12:47:26;;;;;;;0.17;0.10;;;20.00;58.10;;;;;;5074027;28;20054;-77
2021/08/03 12:50:03;;;;;;;0.10;0.10;;;19.80;59.20;;;;;;5073097;28;20044;-76
2021/08/03 12:52:28;;;;;;;0.20;0.20;;;19.70;60.50;;;;;;5057972;28;20035;-76
2021/08/03 12:55:00;;;;;;;0.10;0.10;;;19.70;60.20;;;;;;5057656;28;20025;-76
2021/08/03 12:57:45;;;;;;;0.10;0.10;;;19.50;61.90;;;;;;5057737;28;20061;-77
2021/08/03 13:00:26;;;;;;;0.10;0.10;;;19.50;62.90;;;;;;5057643;28;20364;-77
2021/08/03 13:02:52;;;;;;;0.25;0.13;;;19.80;63.40;;;;;;5057711;28;20045;-76
2021/08/03 13:05:18;;;;;;;0.20;0.20;;;19.80;63.50;;;;;;5057722;28;20505;-77